Aviation Digital Data Service (ADDS)

Output produced by METARs form (1826 UTC 16 August 2018)
found at http://www.aviationweather.gov/adds/metars/
 
TAF SKBQ 161700Z 1618/1718 13008KT 9999 FEW018 
     BECMG 1619/1621 36012KT 
     TEMPO 1621/1623 7000 VCSH SCT018CB 
     BECMG 1705/1707 VRB02KT 
     TEMPO 1710/1713 4000 BR SCT010 TX32/1618Z TN23/1711Z
       
TAF SKBO 161700Z 1618/1718 13012KT 9999 SCT020 
     TEMPO 1618/1620 8000 VCSH SCT018TCU 
     BECMG 1702/1704 VRB02KT 
     TEMPO 1710/1712 05004KT 9000 MIFG SCT015 TX20/1619Z TN06/1711Z
       
TAF SKBG 161700Z 1618/1718 16006KT 9999 FEW018 
     BECMG 1618/1620 33010KT 
     PROB40 1620/1624 6000 RADZ SCT013CB 
     BECMG 1700/1702 VRB02KT 
     TEMPO 1709/1712 5000 BCFG SCT010 TX28/1618Z TN18/1711Z
       
TAF SKCL 161700Z 1618/1718 32010KT 9999 FEW020 SCT100 
     BECMG 1700/1702 VRB02KT FEW015 BKN080 
     PROB30 
     TEMPO 1705/1707 9000 -DZ 
     TEMPO 1711/1713 7000 VCFG TX33/1619Z TN18/1711Z
       
TAF SKCG 161700Z 1618/1718 13006KT 9999 FEW020 
     TEMPO 1620/1622 SCT018TCU 
     BECMG 1703/1705 VRB02KT 
     PROB40 
     TEMPO 1710/1712 8000 VCFG SCT010 TX32/1618Z TN24/1711Z
       
TAF SKCC 161700Z 1618/1718 18018KT 9999 FEW023 
     BECMG 1619/1621 36012KT 
     TEMPO 1620/1623 7000 RA SCT018CB 
     TEMPO 1700/1702 9000 DZ SCT015 
     TEMPO 1710/1713 12005KT 6000 VCFG SCT010 TX35/1618Z TN23/1711Z
       
TAF SKLT 161700Z 1618/1718 12006KT 9999 SCT017 SCT090 
     TEMPO 1618/1623 6000 TSRA SCT015CB 
     TEMPO 1700/1703 8000 DZ SCT013TCU 
     TEMPO 1709/1712 00000KT 3000 BR SCT010 TX31/1618Z TN22/1711Z
       
TAF SKRG 161700Z 1618/1718 12010KT 9999 FEW020 
     TEMPO 1621/1624 8000 VCSH SCT017CB 
     BECMG 1700/1702 VRB02KT 
     TEMPO 1708/1712 3000 BR SCT010 TX24/1618Z TN09/1711Z
       
TAF SKPE 161700Z 1618/1718 30008KT 9999 SCT017 SCT200 
     BECMG 1700/1702 VRB02KT FEW017 SCT090 
     TEMPO 1711/1713 8000 MFIG TX29/1619Z TN17/1711Z
       
TAF SKSP 161700Z 1618/1718 08012KT 9999 SCT018 BKN080 
     PROB40 
     TEMPO 1622/1624 8000 -SHRA SCT015TCU 
     PROB40 
     TEMPO 1704/1706 8000 SHRA SCT013TCU BKN090 TX33/1619Z TN26/1711Z